sensor_id;sensor_type;location;lat;lon;timestamp;P1;durP1;ratioP1;P2;durP2;ratioP2
65597;SDS011;52267;51.984;20.956;2023-05-10T00:00:04;8.40;;;5.10;;
65597;SDS011;52267;51.984;20.956;2023-05-10T00:02:52;8.10;;;4.20;;
65597;SDS011;52267;51.984;20.956;2023-05-10T00:05:19;9.00;;;5.20;;
65597;SDS011;52267;51.984;20.956;2023-05-10T00:07:46;10.60;;;6.40;;
65597;SDS011;52267;51.984;20.956;2023-05-10T00:10:13;10.90;;;5.70;;
65597;SDS011;52267;51.984;20.956;2023-05-10T00:12:40;9.40;;;6.00;;
65597;SDS011;52267;51.984;20.956;2023-05-10T00:15:08;10.80;;;5.90;;
65597;SDS011;52267;51.984;20.956;2023-05-10T00:17:35;9.80;;;5.80;;
65597;SDS011;52267;51.984;20.956;2023-05-10T00:20:03;10.80;;;6.10;;
65597;SDS011;52267;51.984;20.956;2023-05-10T00:22:31;9.00;;;5.40;;
65597;SDS011;52267;51.984;20.956;2023-05-10T00:24:58;9.80;;;6.30;;
65597;SDS011;52267;51.984;20.956;2023-05-10T00:27:26;12.60;;;6.70;;
65597;SDS011;52267;51.984;20.956;2023-05-10T00:29:53;8.50;;;5.20;;
65597;SDS011;52267;51.984;20.956;2023-05-10T00:32:20;8.70;;;5.40;;
65597;SDS011;52267;51.984;20.956;2023-05-10T00:34:47;10.30;;;5.90;;
65597;SDS011;52267;51.984;20.956;2023-05-10T00:37:14;12.80;;;6.60;;
65597;SDS011;52267;51.984;20.956;2023-05-10T00:39:41;12.40;;;7.40;;
65597;SDS011;52267;51.984;20.956;2023-05-10T00:42:08;10.00;;;5.70;;
65597;SDS011;52267;51.984;20.956;2023-05-10T00:44:35;11.80;;;6.70;;
65597;SDS011;52267;51.984;20.956;2023-05-10T00:47:02;10.90;;;6.30;;
65597;SDS011;52267;51.984;20.956;2023-05-10T00:49:29;9.50;;;5.70;;
65597;SDS011;52267;51.984;20.956;2023-05-10T00:51:56;10.00;;;5.40;;
65597;SDS011;52267;51.984;20.956;2023-05-10T00:54:23;7.90;;;5.70;;
65597;SDS011;52267;51.984;20.956;2023-05-10T00:56:51;9.60;;;5.80;;
65597;SDS011;52267;51.984;20.956;2023-05-10T00:59:18;8.90;;;5.40;;
65597;SDS011;52267;51.984;20.956;2023-05-10T01:01:45;11.10;;;6.80;;
65597;SDS011;52267;51.984;20.956;2023-05-10T01:04:13;15.60;;;6.30;;
65597;SDS011;52267;51.984;20.956;2023-05-10T01:06:41;13.20;;;6.30;;
65597;SDS011;52267;51.984;20.956;2023-05-10T01:09:09;9.90;;;6.30;;
65597;SDS011;52267;51.984;20.956;2023-05-10T01:11:38;13.30;;;7.10;;
65597;SDS011;52267;51.984;20.956;2023-05-10T01:14:05;12.80;;;6.90;;
65597;SDS011;52267;51.984;20.956;2023-05-10T01:16:36;12.00;;;6.50;;
65597;SDS011;52267;51.984;20.956;2023-05-10T01:19:30;11.70;;;5.80;;
65597;SDS011;52267;51.984;20.956;2023-05-10T01:33:48;11.20;;;6.20;;
65597;SDS011;52267;51.984;20.956;2023-05-10T01:36:32;8.90;;;5.40;;
65597;SDS011;52267;51.984;20.956;2023-05-10T01:39:45;12.50;;;6.40;;
65597;SDS011;52267;51.984;20.956;2023-05-10T01:42:21;12.30;;;5.50;;
65597;SDS011;52267;51.984;20.956;2023-05-10T01:45:00;10.80;;;6.00;;
65597;SDS011;52267;51.984;20.956;2023-05-10T01:47:44;10.50;;;6.50;;
65597;SDS011;52267;51.984;20.956;2023-05-10T01:50:24;10.70;;;5.60;;
65597;SDS011;52267;51.984;20.956;2023-05-10T01:52:57;8.90;;;6.00;;
65597;SDS011;52267;51.984;20.956;2023-05-10T01:55:28;10.80;;;6.20;;
65597;SDS011;52267;51.984;20.956;2023-05-10T01:58:07;9.20;;;5.00;;
65597;SDS011;52267;51.984;20.956;2023-05-10T02:00:40;10.70;;;5.60;;
65597;SDS011;52267;51.984;20.956;2023-05-10T02:03:10;10.90;;;5.90;;
65597;SDS011;52267;51.984;20.956;2023-05-10T02:05:40;12.00;;;6.30;;
65597;SDS011;52267;51.984;20.956;2023-05-10T02:08:09;8.50;;;5.60;;
65597;SDS011;52267;51.984;20.956;2023-05-10T02:10:37;10.20;;;5.70;;
65597;SDS011;52267;51.984;20.956;2023-05-10T02:13:07;10.60;;;6.00;;
65597;SDS011;52267;51.984;20.956;2023-05-10T02:15:34;10.40;;;6.20;;
65597;SDS011;52267;51.984;20.956;2023-05-10T02:18:03;11.30;;;5.60;;
65597;SDS011;52267;51.984;20.956;2023-05-10T02:20:33;8.80;;;5.80;;
65597;SDS011;52267;51.984;20.956;2023-05-10T02:23:02;10.80;;;5.80;;
65597;SDS011;52267;51.984;20.956;2023-05-10T02:25:31;10.90;;;5.90;;
65597;SDS011;52267;51.984;20.956;2023-05-10T02:28:00;10.20;;;5.90;;
65597;SDS011;52267;51.984;20.956;2023-05-10T02:30:31;10.90;;;6.20;;
65597;SDS011;52267;51.984;20.956;2023-05-10T02:32:59;12.40;;;5.80;;
65597;SDS011;52267;51.984;20.956;2023-05-10T02:35:27;8.80;;;5.70;;
65597;SDS011;52267;51.984;20.956;2023-05-10T02:37:56;10.10;;;5.20;;
65597;SDS011;52267;51.984;20.956;2023-05-10T02:40:25;9.90;;;5.80;;
65597;SDS011;52267;51.984;20.956;2023-05-10T02:42:55;8.30;;;5.50;;
65597;SDS011;52267;51.984;20.956;2023-05-10T02:45:25;9.70;;;6.10;;
65597;SDS011;52267;51.984;20.956;2023-05-10T02:47:55;9.30;;;6.10;;
65597;SDS011;52267;51.984;20.956;2023-05-10T02:50:26;10.10;;;5.80;;
65597;SDS011;52267;51.984;20.956;2023-05-10T02:53:00;12.10;;;6.40;;
65597;SDS011;52267;51.984;20.956;2023-05-10T02:55:40;11.00;;;6.00;;
65597;SDS011;52267;51.984;20.956;2023-05-10T02:58:09;10.60;;;5.70;;
65597;SDS011;52267;51.984;20.956;2023-05-10T03:00:36;10.20;;;5.90;;
65597;SDS011;52267;51.984;20.956;2023-05-10T03:03:03;8.90;;;5.50;;
65597;SDS011;52267;51.984;20.956;2023-05-10T03:05:30;9.70;;;6.10;;
65597;SDS011;52267;51.984;20.956;2023-05-10T03:07:57;9.80;;;6.10;;
65597;SDS011;52267;51.984;20.956;2023-05-10T03:10:27;10.20;;;6.00;;
65597;SDS011;52267;51.984;20.956;2023-05-10T03:16:10;13.30;;;6.00;;
65597;SDS011;52267;51.984;20.956;2023-05-10T03:18:48;11.90;;;5.90;;
65597;SDS011;52267;51.984;20.956;2023-05-10T03:21:22;11.50;;;6.70;;
65597;SDS011;52267;51.984;20.956;2023-05-10T03:24:05;8.80;;;5.10;;
65597;SDS011;52267;51.984;20.956;2023-05-10T03:26:34;12.30;;;6.30;;
65597;SDS011;52267;51.984;20.956;2023-05-10T03:29:04;11.90;;;6.10;;
65597;SDS011;52267;51.984;20.956;2023-05-10T03:31:32;10.20;;;5.70;;
65597;SDS011;52267;51.984;20.956;2023-05-10T03:33:59;10.80;;;5.70;;
65597;SDS011;52267;51.984;20.956;2023-05-10T03:36:26;11.90;;;6.00;;
65597;SDS011;52267;51.984;20.956;2023-05-10T03:38:53;9.10;;;5.70;;
65597;SDS011;52267;51.984;20.956;2023-05-10T03:41:20;9.20;;;5.90;;
65597;SDS011;52267;51.984;20.956;2023-05-10T03:43:47;9.20;;;5.60;;
65597;SDS011;52267;51.984;20.956;2023-05-10T03:46:14;8.00;;;5.60;;
65597;SDS011;52267;51.984;20.956;2023-05-10T03:48:41;7.40;;;5.00;;
65597;SDS011;52267;51.984;20.956;2023-05-10T03:51:09;10.30;;;5.00;;
65597;SDS011;52267;51.984;20.956;2023-05-10T03:53:36;6.30;;;3.50;;
65597;SDS011;52267;51.984;20.956;2023-05-10T03:56:03;8.90;;;5.10;;
65597;SDS011;52267;51.984;20.956;2023-05-10T03:58:30;7.80;;;4.30;;
65597;SDS011;52267;51.984;20.956;2023-05-10T04:00:57;6.10;;;3.70;;
65597;SDS011;52267;51.984;20.956;2023-05-10T04:03:24;9.50;;;4.80;;
65597;SDS011;52267;51.984;20.956;2023-05-10T04:05:59;7.70;;;4.80;;
65597;SDS011;52267;51.984;20.956;2023-05-10T04:08:27;10.20;;;5.30;;
65597;SDS011;52267;51.984;20.956;2023-05-10T04:11:04;8.40;;;4.40;;
65597;SDS011;52267;51.984;20.956;2023-05-10T04:13:33;7.30;;;3.90;;
65597;SDS011;52267;51.984;20.956;2023-05-10T04:16:00;8.20;;;4.70;;
65597;SDS011;52267;51.984;20.956;2023-05-10T04:18:28;10.10;;;5.10;;
65597;SDS011;52267;51.984;20.956;2023-05-10T04:20:55;11.30;;;4.70;;
65597;SDS011;52267;51.984;20.956;2023-05-10T04:23:22;10.00;;;5.70;;
65597;SDS011;52267;51.984;20.956;2023-05-10T04:25:49;10.10;;;5.10;;
65597;SDS011;52267;51.984;20.956;2023-05-10T04:28:16;10.10;;;5.00;;
65597;SDS011;52267;51.984;20.956;2023-05-10T04:30:43;7.00;;;2.90;;
65597;SDS011;52267;51.984;20.956;2023-05-10T04:33:10;8.00;;;4.10;;
65597;SDS011;52267;51.984;20.956;2023-05-10T04:35:37;9.20;;;4.50;;
65597;SDS011;52267;51.984;20.956;2023-05-10T04:38:06;7.20;;;4.70;;
65597;SDS011;52267;51.984;20.956;2023-05-10T04:40:33;6.60;;;4.30;;
65597;SDS011;52267;51.984;20.956;2023-05-10T04:43:01;8.60;;;5.20;;
65597;SDS011;52267;51.984;20.956;2023-05-10T04:45:28;8.90;;;5.50;;
65597;SDS011;52267;51.984;20.956;2023-05-10T04:47:55;8.60;;;4.60;;
65597;SDS011;52267;51.984;20.956;2023-05-10T04:50:22;6.90;;;3.90;;
65597;SDS011;52267;51.984;20.956;2023-05-10T04:52:49;8.40;;;4.10;;
65597;SDS011;52267;51.984;20.956;2023-05-10T04:55:16;8.30;;;5.40;;
65597;SDS011;52267;51.984;20.956;2023-05-10T04:57:42;8.40;;;4.80;;
65597;SDS011;52267;51.984;20.956;2023-05-10T05:00:10;6.50;;;4.00;;
65597;SDS011;52267;51.984;20.956;2023-05-10T05:02:38;9.50;;;5.00;;
65597;SDS011;52267;51.984;20.956;2023-05-10T05:05:05;8.00;;;4.80;;
65597;SDS011;52267;51.984;20.956;2023-05-10T05:07:32;7.50;;;4.80;;
65597;SDS011;52267;51.984;20.956;2023-05-10T05:09:59;9.70;;;5.40;;
65597;SDS011;52267;51.984;20.956;2023-05-10T05:12:26;8.70;;;5.30;;
65597;SDS011;52267;51.984;20.956;2023-05-10T05:14:53;8.90;;;4.80;;
65597;SDS011;52267;51.984;20.956;2023-05-10T05:17:20;10.50;;;4.60;;
65597;SDS011;52267;51.984;20.956;2023-05-10T05:19:47;8.10;;;5.20;;
65597;SDS011;52267;51.984;20.956;2023-05-10T05:22:14;8.50;;;4.60;;
65597;SDS011;52267;51.984;20.956;2023-05-10T05:24:41;7.80;;;5.50;;
65597;SDS011;52267;51.984;20.956;2023-05-10T05:27:08;8.60;;;4.90;;
65597;SDS011;52267;51.984;20.956;2023-05-10T05:29:35;7.10;;;4.50;;
65597;SDS011;52267;51.984;20.956;2023-05-10T05:32:03;7.70;;;4.10;;
65597;SDS011;52267;51.984;20.956;2023-05-10T05:34:30;6.60;;;4.20;;
65597;SDS011;52267;51.984;20.956;2023-05-10T05:36:57;7.40;;;4.40;;
65597;SDS011;52267;51.984;20.956;2023-05-10T05:39:24;8.00;;;4.80;;
65597;SDS011;52267;51.984;20.956;2023-05-10T05:41:51;9.50;;;5.30;;
65597;SDS011;52267;51.984;20.956;2023-05-10T05:44:18;6.80;;;3.60;;
65597;SDS011;52267;51.984;20.956;2023-05-10T05:46:45;8.70;;;5.20;;
65597;SDS011;52267;51.984;20.956;2023-05-10T05:49:12;8.80;;;3.80;;
65597;SDS011;52267;51.984;20.956;2023-05-10T05:51:39;6.30;;;4.00;;
65597;SDS011;52267;51.984;20.956;2023-05-10T05:54:06;5.70;;;3.60;;
65597;SDS011;52267;51.984;20.956;2023-05-10T05:56:33;6.80;;;4.10;;
65597;SDS011;52267;51.984;20.956;2023-05-10T05:59:00;7.60;;;4.80;;
65597;SDS011;52267;51.984;20.956;2023-05-10T06:01:27;7.70;;;4.50;;
65597;SDS011;52267;51.984;20.956;2023-05-10T06:03:54;9.00;;;4.00;;
65597;SDS011;52267;51.984;20.956;2023-05-10T06:06:21;7.90;;;4.20;;
65597;SDS011;52267;51.984;20.956;2023-05-10T06:08:48;7.50;;;3.70;;
65597;SDS011;52267;51.984;20.956;2023-05-10T06:11:15;9.00;;;4.30;;
65597;SDS011;52267;51.984;20.956;2023-05-10T06:13:42;6.50;;;3.80;;
65597;SDS011;52267;51.984;20.956;2023-05-10T06:16:09;9.60;;;3.90;;
65597;SDS011;52267;51.984;20.956;2023-05-10T06:18:37;7.80;;;3.50;;
65597;SDS011;52267;51.984;20.956;2023-05-10T06:21:04;8.10;;;3.80;;
65597;SDS011;52267;51.984;20.956;2023-05-10T06:23:31;6.60;;;4.20;;
65597;SDS011;52267;51.984;20.956;2023-05-10T06:25:58;6.20;;;3.50;;
65597;SDS011;52267;51.984;20.956;2023-05-10T06:28:25;6.70;;;3.70;;
65597;SDS011;52267;51.984;20.956;2023-05-10T06:30:52;6.80;;;4.00;;
65597;SDS011;52267;51.984;20.956;2023-05-10T06:33:19;5.90;;;3.60;;
65597;SDS011;52267;51.984;20.956;2023-05-10T06:35:46;6.70;;;3.50;;
65597;SDS011;52267;51.984;20.956;2023-05-10T06:38:16;6.90;;;3.30;;
65597;SDS011;52267;51.984;20.956;2023-05-10T06:40:43;6.00;;;3.80;;
65597;SDS011;52267;51.984;20.956;2023-05-10T06:43:10;4.70;;;3.20;;
65597;SDS011;52267;51.984;20.956;2023-05-10T06:45:37;5.30;;;3.10;;
65597;SDS011;52267;51.984;20.956;2023-05-10T06:48:04;5.70;;;2.90;;
65597;SDS011;52267;51.984;20.956;2023-05-10T06:50:31;6.10;;;3.40;;
65597;SDS011;52267;51.984;20.956;2023-05-10T06:52:59;8.60;;;4.10;;
65597;SDS011;52267;51.984;20.956;2023-05-10T06:55:27;6.40;;;3.10;;
65597;SDS011;52267;51.984;20.956;2023-05-10T06:57:54;8.30;;;3.80;;
65597;SDS011;52267;51.984;20.956;2023-05-10T07:00:21;5.80;;;2.10;;
65597;SDS011;52267;51.984;20.956;2023-05-10T07:02:48;5.10;;;2.80;;
65597;SDS011;52267;51.984;20.956;2023-05-10T07:05:15;5.00;;;3.00;;
65597;SDS011;52267;51.984;20.956;2023-05-10T07:07:43;6.00;;;2.40;;
65597;SDS011;52267;51.984;20.956;2023-05-10T07:10:10;5.40;;;2.50;;
65597;SDS011;52267;51.984;20.956;2023-05-10T07:12:37;7.00;;;3.10;;
65597;SDS011;52267;51.984;20.956;2023-05-10T07:15:05;5.70;;;2.50;;
65597;SDS011;52267;51.984;20.956;2023-05-10T07:17:33;5.00;;;2.00;;
65597;SDS011;52267;51.984;20.956;2023-05-10T07:20:00;4.10;;;2.50;;
65597;SDS011;52267;51.984;20.956;2023-05-10T07:22:28;6.10;;;3.10;;
65597;SDS011;52267;51.984;20.956;2023-05-10T07:24:55;4.40;;;2.80;;
65597;SDS011;52267;51.984;20.956;2023-05-10T07:27:22;6.30;;;2.80;;
65597;SDS011;52267;51.984;20.956;2023-05-10T07:29:49;4.70;;;2.70;;
65597;SDS011;52267;51.984;20.956;2023-05-10T07:32:16;5.60;;;3.00;;
65597;SDS011;52267;51.984;20.956;2023-05-10T07:34:43;5.70;;;3.00;;
65597;SDS011;52267;51.984;20.956;2023-05-10T07:37:10;5.20;;;2.60;;
65597;SDS011;52267;51.984;20.956;2023-05-10T07:39:37;4.10;;;2.50;;
65597;SDS011;52267;51.984;20.956;2023-05-10T07:42:04;5.10;;;2.30;;
65597;SDS011;52267;51.984;20.956;2023-05-10T07:44:32;4.20;;;2.30;;
65597;SDS011;52267;51.984;20.956;2023-05-10T07:46:59;10.20;;;3.20;;
65597;SDS011;52267;51.984;20.956;2023-05-10T07:49:26;5.00;;;2.20;;
65597;SDS011;52267;51.984;20.956;2023-05-10T07:51:53;4.90;;;2.20;;
65597;SDS011;52267;51.984;20.956;2023-05-10T07:54:20;6.40;;;2.30;;
65597;SDS011;52267;51.984;20.956;2023-05-10T07:56:48;4.90;;;2.50;;
65597;SDS011;52267;51.984;20.956;2023-05-10T07:59:16;6.30;;;2.80;;
65597;SDS011;52267;51.984;20.956;2023-05-10T08:01:44;4.70;;;2.40;;
65597;SDS011;52267;51.984;20.956;2023-05-10T08:04:11;6.90;;;2.60;;
65597;SDS011;52267;51.984;20.956;2023-05-10T08:06:39;6.70;;;2.40;;
65597;SDS011;52267;51.984;20.956;2023-05-10T08:09:06;4.80;;;2.30;;
65597;SDS011;52267;51.984;20.956;2023-05-10T08:11:33;5.00;;;2.40;;
65597;SDS011;52267;51.984;20.956;2023-05-10T08:14:01;4.50;;;2.10;;
65597;SDS011;52267;51.984;20.956;2023-05-10T08:16:28;4.50;;;1.90;;
65597;SDS011;52267;51.984;20.956;2023-05-10T08:18:56;5.50;;;2.30;;
65597;SDS011;52267;51.984;20.956;2023-05-10T08:21:23;3.40;;;1.80;;
65597;SDS011;52267;51.984;20.956;2023-05-10T08:23:50;5.40;;;2.10;;
65597;SDS011;52267;51.984;20.956;2023-05-10T08:26:17;4.20;;;2.20;;
65597;SDS011;52267;51.984;20.956;2023-05-10T08:28:44;4.10;;;2.20;;
65597;SDS011;52267;51.984;20.956;2023-05-10T08:31:11;6.80;;;2.80;;
65597;SDS011;52267;51.984;20.956;2023-05-10T08:33:38;3.70;;;2.10;;
65597;SDS011;52267;51.984;20.956;2023-05-10T08:36:05;6.40;;;2.20;;
65597;SDS011;52267;51.984;20.956;2023-05-10T08:38:33;5.20;;;2.40;;
65597;SDS011;52267;51.984;20.956;2023-05-10T08:41:02;5.10;;;2.70;;
65597;SDS011;52267;51.984;20.956;2023-05-10T08:43:29;4.80;;;2.00;;
65597;SDS011;52267;51.984;20.956;2023-05-10T08:46:00;4.40;;;2.40;;
65597;SDS011;52267;51.984;20.956;2023-05-10T08:48:29;4.70;;;2.60;;
65597;SDS011;52267;51.984;20.956;2023-05-10T08:50:58;6.30;;;2.90;;
65597;SDS011;52267;51.984;20.956;2023-05-10T08:53:28;4.30;;;2.20;;
65597;SDS011;52267;51.984;20.956;2023-05-10T08:55:58;4.20;;;2.10;;
65597;SDS011;52267;51.984;20.956;2023-05-10T08:58:25;3.90;;;2.40;;
65597;SDS011;52267;51.984;20.956;2023-05-10T09:00:53;4.60;;;2.10;;
65597;SDS011;52267;51.984;20.956;2023-05-10T09:03:20;2.90;;;1.90;;
65597;SDS011;52267;51.984;20.956;2023-05-10T09:05:48;4.00;;;2.20;;
65597;SDS011;52267;51.984;20.956;2023-05-10T09:08:15;5.20;;;2.20;;
65597;SDS011;52267;51.984;20.956;2023-05-10T09:10:44;4.00;;;2.30;;
65597;SDS011;52267;51.984;20.956;2023-05-10T09:13:14;6.00;;;2.50;;
65597;SDS011;52267;51.984;20.956;2023-05-10T09:18:12;4.20;;;2.00;;
65597;SDS011;52267;51.984;20.956;2023-05-10T09:20:40;5.40;;;1.90;;
65597;SDS011;52267;51.984;20.956;2023-05-10T09:23:07;3.90;;;2.20;;
65597;SDS011;52267;51.984;20.956;2023-05-10T09:25:35;4.20;;;2.00;;
65597;SDS011;52267;51.984;20.956;2023-05-10T09:28:06;4.30;;;2.20;;
65597;SDS011;52267;51.984;20.956;2023-05-10T09:30:35;5.10;;;2.10;;
65597;SDS011;52267;51.984;20.956;2023-05-10T09:33:02;5.20;;;2.50;;
65597;SDS011;52267;51.984;20.956;2023-05-10T09:35:32;4.80;;;1.90;;
65597;SDS011;52267;51.984;20.956;2023-05-10T09:38:04;5.00;;;2.30;;
65597;SDS011;52267;51.984;20.956;2023-05-10T09:40:32;5.70;;;2.00;;
65597;SDS011;52267;51.984;20.956;2023-05-10T09:43:00;6.50;;;2.60;;
65597;SDS011;52267;51.984;20.956;2023-05-10T09:45:34;6.90;;;2.40;;
65597;SDS011;52267;51.984;20.956;2023-05-10T09:48:02;5.30;;;2.40;;
65597;SDS011;52267;51.984;20.956;2023-05-10T09:50:30;6.70;;;2.30;;
65597;SDS011;52267;51.984;20.956;2023-05-10T09:53:00;3.60;;;2.00;;
65597;SDS011;52267;51.984;20.956;2023-05-10T09:58:02;5.70;;;2.30;;
65597;SDS011;52267;51.984;20.956;2023-05-10T10:00:38;5.30;;;2.40;;
65597;SDS011;52267;51.984;20.956;2023-05-10T10:03:12;5.80;;;2.80;;
65597;SDS011;52267;51.984;20.956;2023-05-10T10:05:42;5.70;;;2.70;;
65597;SDS011;52267;51.984;20.956;2023-05-10T10:08:10;6.80;;;2.70;;
65597;SDS011;52267;51.984;20.956;2023-05-10T10:10:39;4.10;;;2.40;;
65597;SDS011;52267;51.984;20.956;2023-05-10T10:13:11;5.90;;;2.30;;
65597;SDS011;52267;51.984;20.956;2023-05-10T10:15:39;5.20;;;2.40;;
65597;SDS011;52267;51.984;20.956;2023-05-10T10:18:06;3.60;;;2.20;;
65597;SDS011;52267;51.984;20.956;2023-05-10T10:20:37;5.30;;;2.40;;
65597;SDS011;52267;51.984;20.956;2023-05-10T10:23:04;6.60;;;2.30;;
65597;SDS011;52267;51.984;20.956;2023-05-10T10:25:31;5.80;;;2.20;;
65597;SDS011;52267;51.984;20.956;2023-05-10T10:28:12;4.20;;;1.80;;
65597;SDS011;52267;51.984;20.956;2023-05-10T10:34:09;5.40;;;2.10;;
65597;SDS011;52267;51.984;20.956;2023-05-10T10:36:43;6.70;;;2.20;;
65597;SDS011;52267;51.984;20.956;2023-05-10T10:39:12;4.00;;;2.50;;
65597;SDS011;52267;51.984;20.956;2023-05-10T10:41:51;5.40;;;2.30;;
65597;SDS011;52267;51.984;20.956;2023-05-10T10:50:13;3.60;;;1.90;;
65597;SDS011;52267;51.984;20.956;2023-05-10T10:52:40;4.10;;;1.90;;
65597;SDS011;52267;51.984;20.956;2023-05-10T10:55:18;6.00;;;2.20;;
65597;SDS011;52267;51.984;20.956;2023-05-10T10:57:50;5.10;;;2.10;;
65597;SDS011;52267;51.984;20.956;2023-05-10T11:00:35;4.20;;;1.80;;
65597;SDS011;52267;51.984;20.956;2023-05-10T11:03:11;5.50;;;2.30;;
65597;SDS011;52267;51.984;20.956;2023-05-10T11:05:48;6.30;;;2.40;;
65597;SDS011;52267;51.984;20.956;2023-05-10T11:13:29;3.60;;;1.90;;
65597;SDS011;52267;51.984;20.956;2023-05-10T11:15:58;4.10;;;1.60;;
65597;SDS011;52267;51.984;20.956;2023-05-10T11:18:30;3.80;;;2.10;;
65597;SDS011;52267;51.984;20.956;2023-05-10T11:23:31;5.10;;;1.90;;
65597;SDS011;52267;51.984;20.956;2023-05-10T11:26:00;3.50;;;2.00;;
65597;SDS011;52267;51.984;20.956;2023-05-10T11:28:27;5.30;;;2.10;;
65597;SDS011;52267;51.984;20.956;2023-05-10T11:30:55;4.20;;;2.20;;
65597;SDS011;52267;51.984;20.956;2023-05-10T11:33:22;5.00;;;2.00;;
65597;SDS011;52267;51.984;20.956;2023-05-10T11:35:50;5.50;;;2.50;;
65597;SDS011;52267;51.984;20.956;2023-05-10T11:38:17;3.80;;;2.20;;
65597;SDS011;52267;51.984;20.956;2023-05-10T11:40:44;3.40;;;1.80;;
65597;SDS011;52267;51.984;20.956;2023-05-10T11:43:11;4.60;;;1.90;;
65597;SDS011;52267;51.984;20.956;2023-05-10T11:45:42;5.20;;;2.40;;
65597;SDS011;52267;51.984;20.956;2023-05-10T11:48:09;3.70;;;2.10;;
65597;SDS011;52267;51.984;20.956;2023-05-10T11:50:36;6.60;;;2.10;;
65597;SDS011;52267;51.984;20.956;2023-05-10T11:53:03;7.20;;;2.40;;
65597;SDS011;52267;51.984;20.956;2023-05-10T11:55:33;6.80;;;3.00;;
65597;SDS011;52267;51.984;20.956;2023-05-10T11:58:01;3.90;;;2.30;;
65597;SDS011;52267;51.984;20.956;2023-05-10T12:00:29;5.10;;;1.80;;
65597;SDS011;52267;51.984;20.956;2023-05-10T12:02:57;4.60;;;2.40;;
65597;SDS011;52267;51.984;20.956;2023-05-10T12:05:25;5.40;;;2.00;;
65597;SDS011;52267;51.984;20.956;2023-05-10T12:07:52;6.70;;;2.50;;
65597;SDS011;52267;51.984;20.956;2023-05-10T12:10:26;4.40;;;2.60;;
65597;SDS011;52267;51.984;20.956;2023-05-10T12:12:53;5.30;;;2.30;;
65597;SDS011;52267;51.984;20.956;2023-05-10T12:15:22;6.80;;;2.40;;
65597;SDS011;52267;51.984;20.956;2023-05-10T12:17:50;7.90;;;2.70;;
65597;SDS011;52267;51.984;20.956;2023-05-10T12:20:22;6.70;;;2.80;;
65597;SDS011;52267;51.984;20.956;2023-05-10T12:22:55;4.10;;;2.20;;
65597;SDS011;52267;51.984;20.956;2023-05-10T12:25:24;4.40;;;1.70;;
65597;SDS011;52267;51.984;20.956;2023-05-10T12:27:58;4.80;;;2.00;;
65597;SDS011;52267;51.984;20.956;2023-05-10T12:30:28;5.80;;;2.10;;
65597;SDS011;52267;51.984;20.956;2023-05-10T12:35:53;7.00;;;2.80;;
65597;SDS011;52267;51.984;20.956;2023-05-10T12:38:31;5.60;;;2.40;;
65597;SDS011;52267;51.984;20.956;2023-05-10T12:41:02;5.00;;;2.50;;
65597;SDS011;52267;51.984;20.956;2023-05-10T12:43:30;5.20;;;1.90;;
65597;SDS011;52267;51.984;20.956;2023-05-10T12:45:58;7.70;;;2.50;;
65597;SDS011;52267;51.984;20.956;2023-05-10T12:48:30;7.20;;;2.40;;
65597;SDS011;52267;51.984;20.956;2023-05-10T12:50:58;4.20;;;2.20;;
65597;SDS011;52267;51.984;20.956;2023-05-10T12:53:25;4.60;;;2.30;;
65597;SDS011;52267;51.984;20.956;2023-05-10T12:55:52;5.00;;;2.40;;
65597;SDS011;52267;51.984;20.956;2023-05-10T12:58:19;4.00;;;2.50;;
65597;SDS011;52267;51.984;20.956;2023-05-10T13:00:46;6.20;;;2.70;;
65597;SDS011;52267;51.984;20.956;2023-05-10T13:03:14;3.70;;;1.80;;
65597;SDS011;52267;51.984;20.956;2023-05-10T13:05:42;4.50;;;2.30;;
65597;SDS011;52267;51.984;20.956;2023-05-10T13:08:09;4.70;;;2.40;;
65597;SDS011;52267;51.984;20.956;2023-05-10T13:10:36;3.80;;;2.20;;
65597;SDS011;52267;51.984;20.956;2023-05-10T13:13:03;5.70;;;2.60;;
65597;SDS011;52267;51.984;20.956;2023-05-10T13:15:30;4.80;;;2.40;;
65597;SDS011;52267;51.984;20.956;2023-05-10T13:17:57;5.10;;;2.50;;
65597;SDS011;52267;51.984;20.956;2023-05-10T13:20:24;6.30;;;2.40;;
65597;SDS011;52267;51.984;20.956;2023-05-10T13:22:52;5.30;;;2.60;;
65597;SDS011;52267;51.984;20.956;2023-05-10T13:25:19;5.00;;;2.30;;
65597;SDS011;52267;51.984;20.956;2023-05-10T13:27:46;4.50;;;2.10;;
65597;SDS011;52267;51.984;20.956;2023-05-10T13:30:13;4.50;;;2.20;;
65597;SDS011;52267;51.984;20.956;2023-05-10T13:32:40;5.10;;;2.20;;
65597;SDS011;52267;51.984;20.956;2023-05-10T13:35:07;4.30;;;2.50;;
65597;SDS011;52267;51.984;20.956;2023-05-10T13:37:35;6.20;;;2.30;;
65597;SDS011;52267;51.984;20.956;2023-05-10T13:40:04;5.30;;;2.80;;
65597;SDS011;52267;51.984;20.956;2023-05-10T13:42:31;5.10;;;2.30;;
65597;SDS011;52267;51.984;20.956;2023-05-10T13:45:00;4.10;;;1.90;;
65597;SDS011;52267;51.984;20.956;2023-05-10T13:47:28;4.10;;;2.10;;
65597;SDS011;52267;51.984;20.956;2023-05-10T13:49:55;3.90;;;2.20;;
65597;SDS011;52267;51.984;20.956;2023-05-10T13:52:22;4.80;;;1.70;;
65597;SDS011;52267;51.984;20.956;2023-05-10T13:54:49;3.30;;;2.10;;
65597;SDS011;52267;51.984;20.956;2023-05-10T13:57:18;3.80;;;2.30;;
65597;SDS011;52267;51.984;20.956;2023-05-10T13:59:45;5.10;;;2.40;;
65597;SDS011;52267;51.984;20.956;2023-05-10T14:02:12;4.00;;;2.30;;
65597;SDS011;52267;51.984;20.956;2023-05-10T14:04:39;8.00;;;2.50;;
65597;SDS011;52267;51.984;20.956;2023-05-10T14:07:06;8.20;;;2.40;;
65597;SDS011;52267;51.984;20.956;2023-05-10T14:09:33;5.30;;;2.70;;
65597;SDS011;52267;51.984;20.956;2023-05-10T14:12:00;5.60;;;2.50;;
65597;SDS011;52267;51.984;20.956;2023-05-10T14:14:28;5.80;;;2.20;;
65597;SDS011;52267;51.984;20.956;2023-05-10T14:16:55;4.50;;;1.80;;
65597;SDS011;52267;51.984;20.956;2023-05-10T14:19:23;4.90;;;2.30;;
65597;SDS011;52267;51.984;20.956;2023-05-10T14:21:50;3.60;;;2.10;;
65597;SDS011;52267;51.984;20.956;2023-05-10T14:24:18;5.90;;;2.60;;
65597;SDS011;52267;51.984;20.956;2023-05-10T14:26:45;4.00;;;2.10;;
65597;SDS011;52267;51.984;20.956;2023-05-10T14:29:12;5.40;;;2.20;;
65597;SDS011;52267;51.984;20.956;2023-05-10T14:31:40;6.80;;;3.00;;
65597;SDS011;52267;51.984;20.956;2023-05-10T14:34:07;5.80;;;2.30;;
65597;SDS011;52267;51.984;20.956;2023-05-10T14:36:34;6.20;;;2.10;;
65597;SDS011;52267;51.984;20.956;2023-05-10T14:39:01;6.60;;;2.50;;
65597;SDS011;52267;51.984;20.956;2023-05-10T14:41:29;5.00;;;2.10;;
65597;SDS011;52267;51.984;20.956;2023-05-10T14:43:56;5.60;;;2.60;;
65597;SDS011;52267;51.984;20.956;2023-05-10T14:46:23;5.10;;;2.50;;
65597;SDS011;52267;51.984;20.956;2023-05-10T14:48:51;4.90;;;2.60;;
65597;SDS011;52267;51.984;20.956;2023-05-10T14:51:18;5.90;;;2.30;;
65597;SDS011;52267;51.984;20.956;2023-05-10T14:53:48;4.10;;;2.30;;
65597;SDS011;52267;51.984;20.956;2023-05-10T14:56:18;3.30;;;2.10;;
65597;SDS011;52267;51.984;20.956;2023-05-10T14:58:45;3.70;;;2.10;;
65597;SDS011;52267;51.984;20.956;2023-05-10T15:01:12;3.90;;;1.70;;
65597;SDS011;52267;51.984;20.956;2023-05-10T15:03:39;3.90;;;1.80;;
65597;SDS011;52267;51.984;20.956;2023-05-10T15:06:08;6.20;;;2.30;;
65597;SDS011;52267;51.984;20.956;2023-05-10T15:08:35;4.80;;;2.10;;
65597;SDS011;52267;51.984;20.956;2023-05-10T15:11:02;5.50;;;2.40;;
65597;SDS011;52267;51.984;20.956;2023-05-10T15:13:29;4.80;;;2.00;;
65597;SDS011;52267;51.984;20.956;2023-05-10T15:15:56;3.70;;;1.90;;
65597;SDS011;52267;51.984;20.956;2023-05-10T15:18:23;3.30;;;2.00;;
65597;SDS011;52267;51.984;20.956;2023-05-10T15:20:50;5.60;;;2.30;;